Time;durP1;ratioP1;P1;durP2;ratioP2;P2;SDS_P1;SDS_P2;PMS_P1;PMS_P2;Temp;Humidity;BMP_temperature;BMP_pressure;BME280_temperature;BME280_humidity;BME280_pressure;Samples;Min_cycle;Max_cycle;Signal;HPM_P1;HPM_P2
2022/09/03 00:15:11;;;;;;;;;;;;;;;19.87;100.00;99318.06;4993463;28;668;-59
2022/09/03 00:17:48;;;;;;;;;;;;;;;19.83;100.00;99312.63;4993406;28;845;-59
2022/09/03 00:20:18;;;;;;;;;;;;;;;19.82;100.00;99316.69;4993301;28;819;-59
2022/09/03 00:22:48;;;;;;;;;;;;;;;19.79;100.00;99312.81;4993341;28;806;-59
2022/09/03 00:25:19;;;;;;;;;;;;;;;19.79;100.00;99326.81;4991906;28;1462;-59
2022/09/03 00:27:50;;;;;;;;;;;;;;;19.78;100.00;99325.28;4993136;28;1971;-59
2022/09/03 00:30:18;;;;;;;;;;;;;;;19.76;100.00;99325.00;4991837;28;1481;-59
2022/09/03 00:32:54;;;;;;;;;;;;;;;19.70;100.00;99318.47;4993081;28;870;-59
2022/09/03 00:35:26;;;;;;;;;;;;;;;19.65;100.00;99323.94;4993272;28;886;-59
2022/09/03 00:37:54;;;;;;;;;;;;;;;19.58;100.00;99325.84;4992977;28;807;-59
2022/09/03 00:40:44;;;;;;;;;;;;;;;19.51;100.00;99331.81;4992914;28;819;-59
2022/09/03 00:43:14;;;;;;;;;;;;;;;19.43;100.00;99341.81;4992940;28;811;-59
2022/09/03 00:45:50;;;;;;;;;;;;;;;19.39;100.00;99338.41;4992761;28;803;-59
2022/09/03 00:48:24;;;;;;;;;;;;;;;19.35;100.00;99349.00;4992713;28;1944;-59
2022/09/03 00:51:08;;;;;;;;;;;;;;;19.31;100.00;99357.59;4992786;28;842;-59
2022/09/03 00:53:41;;;;;;;;;;;;;;;19.31;100.00;99360.41;4991421;28;1422;-59
2022/09/03 00:56:34;;;;;;;;;;;;;;;19.37;100.00;99366.13;4992896;28;803;-59
2022/09/03 00:59:27;;;;;;;;;;;;;;;19.35;100.00;99375.00;4987816;28;1221;-59
2022/09/03 01:01:54;;;;;;;;;;;;;;;19.28;100.00;99355.72;4987626;28;1209;-59
2022/09/03 01:04:34;;;;;;;;;;;;;;;19.20;100.00;99356.53;4991371;28;1268;-58
2022/09/03 01:07:11;;;;;;;;;;;;;;;19.09;100.00;99352.22;4992561;28;783;-59
2022/09/03 01:09:57;;;;;;;;;;;;;;;19.03;100.00;99359.69;4991040;28;1941;-60
2022/09/03 01:12:34;;;;;;;;;;;;;;;18.94;100.00;99356.94;4990920;28;1486;-59
2022/09/03 01:15:07;;;;;;;;;;;;;;;18.92;100.00;99365.03;4992397;28;870;-59
2022/09/03 01:17:41;;;;;;;;;;;;;;;18.86;100.00;99373.31;4992365;28;998;-59
2022/09/03 01:20:23;;;;;;;;;;;;;;;18.82;100.00;99372.69;4991137;28;1425;-59
2022/09/03 01:23:08;;;;;;;;;;;;;;;18.81;100.00;99371.13;4992390;28;854;-59
2022/09/03 01:25:45;;;;;;;;;;;;;;;18.75;100.00;99375.75;4990990;28;1292;-59
2022/09/03 01:28:31;;;;;;;;;;;;;;;18.65;100.00;99368.63;4992155;28;1914;-59
2022/09/03 01:31:17;;;;;;;;;;;;;;;18.63;100.00;99374.69;4992219;28;1160;-59
2022/09/03 01:34:02;;;;;;;;;;;;;;;18.64;100.00;99372.69;4992241;28;838;-59
2022/09/03 01:36:39;;;;;;;;;;;;;;;18.60;100.00;99386.06;4992121;28;807;-59
2022/09/03 01:39:08;;;;;;;;;;;;;;;18.61;100.00;99380.00;4990862;28;1291;-59
2022/09/03 01:44:40;;;;;;;;;;;;;;;18.69;100.00;99386.03;4992166;28;637;-59
2022/09/03 01:47:31;;;;;;;;;;;;;;;18.71;100.00;99378.75;4992129;28;834;-58
2022/09/03 01:49:58;;;;;;;;;;;;;;;18.70;100.00;99374.38;4991867;28;1026;-59
2022/09/03 01:52:37;;;;;;;;;;;;;;;18.67;100.00;99371.72;4992127;28;799;-59
2022/09/03 01:55:16;;;;;;;;;;;;;;;18.75;100.00;99370.16;4992220;28;881;-59
2022/09/03 01:57:48;;;;;;;;;;;;;;;19.05;100.00;99362.81;4990892;28;1455;-59
2022/09/03 02:00:19;;;;;;;;;;;;;;;19.29;100.00;99360.09;4994622;28;1442;-59
2022/09/03 02:02:47;;;;;;;;;;;;;;;19.56;100.00;99361.97;4994791;28;1276;-59
2022/09/03 02:05:25;;;;;;;;;;;;;;;19.82;100.00;99355.16;4996146;28;857;-59
2022/09/03 02:07:51;;;;;;;;;;;;;;;20.03;100.00;99354.09;4994440;28;1979;-59
2022/09/03 02:10:23;;;;;;;;;;;;;;;20.11;100.00;99355.28;4995714;28;1292;-59
2022/09/03 02:13:04;;;;;;;;;;;;;;;20.21;100.00;99350.38;4995448;28;1155;-59
2022/09/03 02:15:34;;;;;;;;;;;;;;;20.24;100.00;99352.22;4995730;28;823;-59
2022/09/03 02:18:02;;;;;;;;;;;;;;;20.21;100.00;99347.56;4995608;28;847;-58
2022/09/03 02:20:29;;;;;;;;;;;;;;;20.15;100.00;99350.25;4995563;28;823;-59
2022/09/03 02:23:06;;;;;;;;;;;;;;;20.12;100.00;99345.63;4995529;28;803;-59
2022/09/03 02:25:37;;;;;;;;;;;;;;;20.08;100.00;99353.44;4994265;28;1216;-59
2022/09/03 02:28:04;;;;;;;;;;;;;;;20.08;100.00;99353.44;4995288;28;1911;-59
2022/09/03 02:30:30;;;;;;;;;;;;;;;20.14;100.00;99350.72;4995423;28;814;-59
2022/09/03 02:33:04;;;;;;;;;;;;;;;20.22;100.00;99349.09;4995386;28;814;-59
2022/09/03 02:35:31;;;;;;;;;;;;;;;;;;4995277;28;890;-59
2022/09/03 02:38:08;;;;;;;;;;;;;;;20.40;100.00;99345.38;4995290;28;921;-59
2022/09/03 02:40:35;;;;;;;;;;;;;;;20.44;100.00;99336.75;4995103;28;795;-60
2022/09/03 02:43:08;;;;;;;;;;;;;;;20.47;100.00;99330.19;4995125;28;874;-59
2022/09/03 02:46:23;;;;;;;;;;;;;;;20.46;100.00;99328.63;4995104;28;791;-59
2022/09/03 02:57:39;;;;;;;;;;;;;;;19.93;100.00;99330.94;4995197;28;613;-59
2022/09/03 03:00:07;;;;;;;;;;;;;;;19.84;100.00;99338.63;4995008;28;819;-59
2022/09/03 03:02:37;;;;;;;;;;;;;;;19.77;100.00;99342.59;4994735;28;858;-59
2022/09/03 03:05:04;;;;;;;;;;;;;;;19.74;100.00;99349.91;4994990;28;874;-58
2022/09/03 03:07:34;;;;;;;;;;;;;;;19.73;100.00;99342.75;4994840;28;1968;-59
2022/09/03 03:10:01;;;;;;;;;;;;;;;19.82;100.00;99352.34;4993223;28;958;-59
2022/09/03 03:12:30;;;;;;;;;;;;;;;19.87;100.00;99351.72;4994409;28;1299;-59
2022/09/03 03:14:57;;;;;;;;;;;;;;;19.87;100.00;99352.50;4993291;28;1370;-59
2022/09/03 03:17:25;;;;;;;;;;;;;;;19.84;100.00;99347.06;4993177;28;1316;-59
2022/09/03 03:19:51;;;;;;;;;;;;;;;19.71;100.00;99359.28;4994480;28;855;-59
2022/09/03 03:22:18;;;;;;;;;;;;;;;19.68;100.00;99360.22;4993156;28;1227;-59
2022/09/03 03:24:46;;;;;;;;;;;;;;;19.72;100.00;99355.22;4994374;28;873;-59
2022/09/03 03:27:13;;;;;;;;;;;;;;;19.73;100.00;99353.97;4993013;28;1374;-59
2022/09/03 03:29:41;;;;;;;;;;;;;;;19.62;100.00;99359.31;4992962;28;1906;-59
2022/09/03 03:32:08;;;;;;;;;;;;;;;19.49;100.00;99362.31;4994475;28;807;-59
2022/09/03 03:34:35;;;;;;;;;;;;;;;19.44;100.00;99371.41;4992954;28;1359;-59
2022/09/03 03:37:02;;;;;;;;;;;;;;;19.48;100.00;99388.00;4992921;28;1367;-59
2022/09/03 03:39:28;;;;;;;;;;;;;;;19.63;100.00;99388.09;4994158;28;854;-59
2022/09/03 03:41:55;;;;;;;;;;;;;;;19.78;100.00;99391.81;4994105;28;882;-59
2022/09/03 03:44:21;;;;;;;;;;;;;;;19.90;100.00;99402.00;4994039;28;901;-59
2022/09/03 03:46:48;;;;;;;;;;;;;;;20.01;100.00;99398.66;4994035;28;857;-59
2022/09/03 03:49:14;;;;;;;;;;;;;;;20.07;100.00;99402.38;4992540;28;2069;-59
2022/09/03 03:51:41;;;;;;;;;;;;;;;20.05;100.00;99402.06;4993883;28;850;-59
2022/09/03 03:54:08;;;;;;;;;;;;;;;20.03;100.00;99398.19;4993753;28;863;-59
2022/09/03 03:56:35;;;;;;;;;;;;;;;20.05;100.00;99406.91;4993856;28;814;-59
2022/09/03 03:59:05;;;;;;;;;;;;;;;20.08;100.00;99405.94;4992501;28;1295;-59
2022/09/03 04:01:32;;;;;;;;;;;;;;;20.07;100.00;99410.78;4994055;28;783;-59
2022/09/03 04:04:13;;;;;;;;;;;;;;;20.10;100.00;99415.44;4993641;28;807;-59
2022/09/03 04:06:40;;;;;;;;;;;;;;;20.14;100.00;99418.06;4993835;28;829;-59
2022/09/03 04:09:07;;;;;;;;;;;;;;;20.16;100.00;99421.16;4993570;28;1890;-59
2022/09/03 04:11:34;;;;;;;;;;;;;;;20.21;100.00;99419.75;4993763;28;1158;-59
2022/09/03 04:14:01;;;;;;;;;;;;;;;20.27;100.00;99417.81;4993753;28;862;-59
2022/09/03 04:16:28;;;;;;;;;;;;;;;20.28;100.00;99413.78;4993565;28;842;-59
2022/09/03 04:18:55;;;;;;;;;;;;;;;20.30;100.00;99416.88;4993593;28;807;-59
2022/09/03 04:21:31;;;;;;;;;;;;;;;20.31;100.00;99412.78;4993051;28;826;-58
2022/09/03 04:23:58;;;;;;;;;;;;;;;20.36;100.00;99420.56;4993249;28;811;-59
2022/09/03 04:26:27;;;;;;;;;;;;;;;20.43;100.00;99423.00;4993179;28;870;-59
2022/09/03 04:28:53;;;;;;;;;;;;;;;20.52;100.00;99417.31;4993125;28;1910;-59
2022/09/03 04:31:20;;;;;;;;;;;;;;;20.56;100.00;99419.94;4993140;28;870;-59
2022/09/03 04:33:47;;;;;;;;;;;;;;;20.55;100.00;99413.56;4993036;28;806;-59
2022/09/03 04:36:14;;;;;;;;;;;;;;;20.51;100.00;99404.53;4993055;28;905;-59
2022/09/03 04:38:41;;;;;;;;;;;;;;;20.54;100.00;99408.41;4993220;28;910;-58
2022/09/03 04:41:08;;;;;;;;;;;;;;;20.53;100.00;99404.06;4992928;28;862;-59
2022/09/03 04:43:36;;;;;;;;;;;;;;;20.55;100.00;99399.53;4992893;28;814;-58
2022/09/03 04:46:06;;;;;;;;;;;;;;;20.57;100.00;99413.09;4992922;28;823;-59
2022/09/03 04:48:34;;;;;;;;;;;;;;;20.62;100.00;99417.28;4992715;28;1941;-59
2022/09/03 04:51:04;;;;;;;;;;;;;;;20.62;100.00;99420.84;4992781;28;803;-59
2022/09/03 04:53:31;;;;;;;;;;;;;;;20.59;97.21;99416.97;4992723;28;819;-58
2022/09/03 04:56:00;;;;;;;;;;;;;;;20.63;96.14;99416.00;4992685;28;830;-59
2022/09/03 04:58:42;;;;;;;;;;;;;;;20.69;95.01;99420.47;5109603;27;1289;-59
2022/09/03 05:01:14;;;;;;;;;;;;;;;20.78;94.11;99416.78;5109398;28;821;-58
2022/09/03 05:03:41;;;;;;;;;;;;;;;20.96;93.42;99429.91;5110086;28;858;-59
2022/09/03 05:06:08;;;;;;;;;;;;;;;21.11;93.41;99427.09;5107981;28;1356;-59
2022/09/03 05:08:35;;;;;;;;;;;;;;;21.26;92.51;99424.28;5110191;28;837;-59
2022/09/03 05:11:04;;;;;;;;;;;;;;;21.40;92.43;99421.47;5109337;28;888;-59
2022/09/03 05:13:32;;;;;;;;;;;;;;;21.55;91.59;99431.94;5109379;28;818;-59
2022/09/03 05:16:02;;;;;;;;;;;;;;;21.75;91.08;99422.78;5109248;28;844;-59
2022/09/03 05:18:29;;;;;;;;;;;;;;;21.89;89.83;99432.44;5109069;28;1914;-59
2022/09/03 05:20:59;;;;;;;;;;;;;;;22.02;88.81;99424.47;5109284;28;798;-59
2022/09/03 05:23:32;;;;;;;;;;;;;;;22.20;88.41;99437.47;5109275;28;814;-59
2022/09/03 05:26:00;;;;;;;;;;;;;;;22.33;85.77;99437.16;5108922;28;933;-59
2022/09/03 05:28:29;;;;;;;;;;;;;;;22.47;85.65;99436.31;5108847;28;945;-59
2022/09/03 05:31:03;;;;;;;;;;;;;;;22.53;85.56;99448.41;5108872;28;806;-59
2022/09/03 05:33:33;;;;;;;;;;;;;;;22.55;83.35;99454.34;5108726;28;857;-59
2022/09/03 05:48:11;;;;;;;;;;;;;;;22.58;81.11;99467.41;5108955;28;636;-59
2022/09/03 05:50:37;;;;;;;;;;;;;;;22.74;81.90;99465.28;5108681;28;801;-59
2022/09/03 05:53:03;;;;;;;;;;;;;;;23.00;81.74;99459.66;5108865;28;782;-59
2022/09/03 05:55:31;;;;;;;;;;;;;;;23.04;81.12;99471.53;5108686;28;861;-59
2022/09/03 05:57:57;;;;;;;;;;;;;;;23.17;82.84;99477.56;5108236;28;1898;-59
2022/09/03 06:00:23;;;;;;;;;;;;;;;23.10;77.88;99472.34;5108652;28;814;-58
2022/09/03 06:02:51;;;;;;;;;;;;;;;23.05;78.68;99477.94;5108329;28;908;-59
2022/09/03 06:21:05;;;;;;;;;;;;;;;22.13;80.20;99516.69;5072045;28;608;-60
2022/09/03 06:23:32;;;;;;;;;;;;;;;22.05;81.13;99518.38;5071973;28;877;-59
2022/09/03 06:26:12;;;;;;;;;;;;;;;22.23;82.94;99518.13;5071921;28;790;-59
2022/09/03 06:28:42;;;;;;;;;;;;;;;22.59;82.66;99524.50;5054990;28;1211;-59
2022/09/03 06:31:23;;;;;;;;;;;;;;;22.77;81.06;99541.13;5071788;28;813;-60
2022/09/03 06:33:52;;;;;;;;;;;;;;;23.02;79.45;99530.41;5071746;28;869;-59
2022/09/03 06:36:19;;;;;;;;;;;;;;;23.18;77.20;99529.84;5071532;28;1933;-59
2022/09/03 06:38:46;;;;;;;;;;;;;;;23.32;77.48;99528.19;5071698;28;874;-59
2022/09/03 06:41:34;;;;;;;;;;;;;;;23.47;75.14;99530.13;5054809;28;1176;-59
2022/09/03 06:44:10;;;;;;;;;;;;;;;23.55;75.18;99525.56;5071557;28;842;-59
2022/09/03 06:46:41;;;;;;;;;;;;;;;24.39;74.03;99529.03;5071776;28;866;-59
2022/09/03 06:49:15;;;;;;;;;;;;;;;24.13;68.47;99537.63;5090601;28;921;-59
2022/09/03 06:51:42;;;;;;;;;;;;;;;23.71;71.08;99544.69;5093787;28;830;-59
2022/09/03 06:54:12;;;;;;;;;;;;;;;23.91;70.39;99534.63;5093672;28;829;-59
2022/09/03 06:59:54;;;;;;;;;;;;;;;24.14;69.99;99549.69;5090925;28;1159;-59
2022/09/03 07:02:26;;;;;;;;;;;;;;;24.43;69.60;99548.56;5093844;28;912;-59
2022/09/03 07:08:09;;;;;;;;;;;;;;;23.87;68.77;99560.25;5093446;28;605;-60
2022/09/03 07:10:37;;;;;;;;;;;;;;;23.75;70.35;99561.41;5093386;28;886;-59
2022/09/03 07:13:07;;;;;;;;;;;;;;;24.21;71.11;99560.50;5093335;28;841;-59
2022/09/03 07:15:33;;;;;;;;;;;;;;;24.56;67.57;99556.63;5093293;28;798;-60
2022/09/03 07:18:00;;;;;;;;;;;;;;;24.38;67.95;99561.38;5093392;28;1917;-59
2022/09/03 07:20:26;;;;;;;;;;;;;;;24.32;68.38;99552.09;5092187;28;810;-59
2022/09/03 07:22:55;;;;;;;;;;;;;;;24.15;67.89;99568.16;5093206;28;798;-59
2022/09/03 07:25:22;;;;;;;;;;;;;;;24.03;68.77;99575.78;5093185;28;885;-59
2022/09/03 07:28:06;;;;;;;;;;;;;;;23.89;68.78;99571.03;5093099;28;841;-59
2022/09/03 07:30:31;;;;;;;;;;;;;;;23.79;69.84;99576.06;5092931;28;905;-59
2022/09/03 07:33:02;;;;;;;;;;;;;;;23.56;71.60;99572.28;5092982;28;802;-59
2022/09/03 07:35:31;;;;;;;;;;;;;;;23.13;72.88;99566.41;5092814;28;857;-59
2022/09/03 07:37:57;;;;;;;;;;;;;;;23.76;72.24;99568.63;5092760;28;1947;-59
2022/09/03 07:40:28;;;;;;;;;;;;;;;24.55;67.90;99563.56;5092911;28;808;-59
2022/09/03 07:55:13;;;;;;;;;;;;;;;24.37;67.35;99550.59;5092878;28;608;-59
2022/09/03 08:00:45;;;;;;;;;;;;;;;25.69;64.39;99557.78;5083590;28;1299;-59
2022/09/03 08:03:12;;;;;;;;;;;;;;;27.31;60.29;99542.97;5092270;28;882;-59
2022/09/03 08:05:38;;;;;;;;;;;;;;;27.58;56.30;99552.59;5092397;28;794;-58
2022/09/03 08:08:09;;;;;;;;;;;;;;;27.82;57.23;99546.97;5092207;28;1089;-59
2022/09/03 08:10:38;;;;;;;;;;;;;;;27.66;53.12;99550.72;5092740;28;881;-60
2022/09/03 08:13:05;;;;;;;;;;;;;;;26.18;56.94;99549.81;5092280;28;837;-59
2022/09/03 08:18:41;;;;;;;;;;;;;;;26.51;57.24;99517.00;5093763;28;1915;-59
2022/09/03 08:21:09;;;;;;;;;;;;;;;26.81;57.86;99514.31;5092166;28;799;-59
2022/09/03 08:23:42;;;;;;;;;;;;;;;27.25;54.49;99517.47;5092338;28;859;-59
2022/09/03 08:26:12;;;;;;;;;;;;;;;27.01;55.63;99515.25;5124875;27;1472;-59
2022/09/03 08:28:43;;;;;;;;;;;;;;;26.73;54.85;99507.66;5092021;28;782;-59
2022/09/03 08:34:27;;;;;;;;;;;;;;;26.19;57.41;99494.69;5109878;28;1098;-59
2022/09/03 08:36:53;;;;;;;;;;;;;;;26.91;56.88;99488.50;5110078;28;1955;-59
2022/09/03 08:39:21;;;;;;;;;;;;;;;27.29;53.03;99493.19;5110037;28;856;-59
2022/09/03 08:41:59;;;;;;;;;;;;;;;27.42;53.14;99486.91;5110073;28;844;-59
2022/09/03 08:44:33;;;;;;;;;;;;;;;27.33;51.41;99473.03;5109960;28;849;-59
2022/09/03 08:47:04;;;;;;;;;;;;;;;26.98;52.88;99474.53;5110370;28;817;-58
2022/09/03 08:49:36;;;;;;;;;;;;;;;26.83;52.86;99455.03;5109959;28;833;-60
2022/09/03 08:52:06;;;;;;;;;;;;;;;26.68;53.37;99463.13;5109924;28;802;-60
2022/09/03 08:54:32;;;;;;;;;;;;;;;26.47;53.80;99459.81;5109913;28;865;-62
2022/09/03 09:10:10;;;;;;;;;;;;;;;26.72;53.55;99491.19;5109818;28;683;-61
2022/09/03 09:12:55;;;;;;;;;;;;;;;26.36;53.99;99505.22;5110058;28;842;-63
2022/09/03 09:15:31;;;;;;;;;;;;;;;26.04;55.55;99514.03;5110052;28;842;-60
2022/09/03 09:18:01;;;;;;;;;;;;;;;26.22;56.70;99519.16;5109596;28;1901;-60
2022/09/03 09:20:48;;;;;;;;;;;;;;;26.26;54.98;99527.38;5109612;28;860;-60
2022/09/03 09:23:19;;;;;;;;;;;;;;;25.77;56.32;99526.88;5109651;28;782;-60
2022/09/03 09:37:59;;;;;;;;;;;;;;;24.87;58.15;99519.00;5109507;28;1925;-62
2022/09/03 09:40:25;;;;;;;;;;;;;;;24.91;57.83;99519.53;5109491;28;825;-60
2022/09/03 09:42:57;;;;;;;;;;;;;;;24.89;58.20;99526.97;5109408;28;936;-61
2022/09/03 09:57:36;;;;;;;;;;;;;;;25.17;56.58;99524.22;5112973;28;1953;-61
2022/09/03 10:00:11;;;;;;;;;;;;;;;25.63;55.51;99520.22;5113092;28;809;-61
2022/09/03 10:02:41;;;;;;;;;;;;;;;26.09;53.38;99530.22;5112841;28;896;-64
2022/09/03 10:05:27;;;;;;;;;;;;;;;25.97;53.73;99548.53;5113066;28;845;-63
2022/09/03 10:08:18;;;;;;;;;;;;;;;26.00;53.76;99553.16;5106852;28;1402;-62
2022/09/03 10:23:04;;;;;;;;;;;;;;;25.92;52.92;99549.28;5074433;28;648;-62
2022/09/03 10:25:52;;;;;;;;;;;;;;;25.46;54.46;99557.75;5074101;28;819;-64
2022/09/03 10:41:01;;;;;;;;;;;;;;;24.87;56.47;99569.88;5073842;28;684;-63
2022/09/03 10:46:27;;;;;;;;;;;;;;;25.40;54.62;99573.16;5073617;28;1156;-64
2022/09/03 10:48:58;;;;;;;;;;;;;;;25.46;54.59;99573.94;5073581;28;854;-63
2022/09/03 10:54:53;;;;;;;;;;;;;;;25.51;54.35;99578.06;5073510;28;656;-65
2022/09/03 11:00:22;;;;;;;;;;;;;;;25.07;55.15;99594.34;5073532;28;605;-63
2022/09/03 11:02:58;;;;;;;;;;;;;;;25.39;54.35;99594.22;5073420;28;795;-62
2022/09/03 11:05:28;;;;;;;;;;;;;;;25.82;53.54;99599.72;5073335;28;803;-62
2022/09/03 11:08:01;;;;;;;;;;;;;;;26.00;52.25;99601.28;5078489;28;1224;-64
2022/09/03 11:10:29;;;;;;;;;;;;;;;24.82;54.84;99594.00;5093606;28;830;-65
2022/09/03 11:12:55;;;;;;;;;;;;;;;25.02;55.23;99609.25;5093855;28;791;-64
2022/09/03 11:15:37;;;;;;;;;;;;;;;25.20;54.29;99608.06;5093338;28;837;-63
2022/09/03 11:21:10;;;;;;;;;;;;;;;24.83;56.03;99604.03;5093309;28;601;-65
2022/09/03 11:23:44;;;;;;;;;;;;;;;25.55;53.97;99599.16;5093210;28;826;-64
2022/09/03 11:26:13;;;;;;;;;;;;;;;25.50;53.75;99611.25;5093194;28;818;-64
2022/09/03 11:28:44;;;;;;;;;;;;;;;25.84;53.08;99597.91;5093086;28;802;-64
2022/09/03 11:31:31;;;;;;;;;;;;;;;26.18;51.07;99600.78;5092997;28;845;-63
2022/09/03 11:46:11;;;;;;;;;;;;;;;25.72;52.88;99598.41;5093092;28;592;-66
2022/09/03 11:48:42;;;;;;;;;;;;;;;26.24;51.12;99593.06;5092944;28;916;-64
2022/09/03 11:51:30;;;;;;;;;;;;;;;26.56;51.00;99606.91;5092653;28;888;-65
2022/09/03 11:54:13;;;;;;;;;;;;;;;26.38;50.13;99588.38;5087212;28;1047;-69
2022/09/03 11:56:49;;;;;;;;;;;;;;;26.08;50.88;99597.44;5092450;28;1898;-65
2022/09/03 11:59:28;;;;;;;;;;;;;;;26.33;50.59;99602.53;5092339;28;1248;-67
2022/09/03 12:02:13;;;;;;;;;;;;;;;26.35;49.38;99600.75;5092449;28;849;-65
2022/09/03 12:04:52;;;;;;;;;;;;;;;25.97;50.81;99600.25;5092396;28;841;-67
2022/09/03 12:07:54;;;;;;;;;;;;;;;26.20;50.46;99597.41;5091781;28;1213;-65
2022/09/03 12:10:40;;;;;;;;;;;;;;;26.21;50.65;99604.63;5093296;28;787;-65
2022/09/03 12:13:28;;;;;;;;;;;;;;;26.38;49.83;99602.53;5092534;28;830;-65
2022/09/03 12:16:12;;;;;;;;;;;;;;;26.18;50.18;99597.94;5088130;28;1111;-66
2022/09/03 12:18:40;;;;;;;;;;;;;;;26.31;49.67;99605.13;5092395;28;1969;-65
2022/09/03 12:33:31;;;;;;;;;;;;;;;25.44;52.73;99608.41;5092060;28;640;-64
2022/09/03 12:39:28;;;;;;;;;;;;;;;25.98;50.79;99604.63;5091919;28;616;-69
2022/09/03 12:45:11;;;;;;;;;;;;;;;25.49;51.67;99601.19;5091629;28;1157;-67
2022/09/03 12:48:13;;;;;;;;;;;;;;;25.97;50.77;99619.31;5091783;28;853;-64
2022/09/03 12:50:47;;;;;;;;;;;;;;;26.48;49.35;99623.66;5090374;28;1185;-66
2022/09/03 12:53:24;;;;;;;;;;;;;;;25.13;52.25;99631.16;5091700;28;972;-67
2022/09/03 12:55:55;;;;;;;;;;;;;;;23.83;55.95;99630.25;5092013;28;790;-65
2022/09/03 12:58:27;;;;;;;;;;;;;;;23.82;57.03;99623.06;5091927;28;1913;-65
2022/09/03 13:01:08;;;;;;;;;;;;;;;24.81;53.66;99628.44;5090306;28;1270;-65
2022/09/03 13:03:53;;;;;;;;;;;;;;;24.95;53.27;99626.72;5091615;28;834;-68
2022/09/03 13:06:25;;;;;;;;;;;;;;;25.07;52.63;99628.28;5091526;28;857;-65
2022/09/03 13:21:20;;;;;;;;;;;;;;;25.28;52.29;99611.94;5096094;28;675;-68
2022/09/03 13:23:57;;;;;;;;;;;;;;;24.98;53.10;99620.03;5094255;28;1317;-68
2022/09/03 13:26:50;;;;;;;;;;;;;;;24.58;54.09;99613.38;5128338;27;1328;-70
2022/09/03 13:29:38;;;;;;;;;;;;;;;24.88;53.95;99613.84;5089008;28;1285;-65
2022/09/03 13:32:23;;;;;;;;;;;;;;;25.40;52.61;99624.06;5095368;28;837;-66
2022/09/03 13:41:18;;;;;;;;;;;;;;;25.07;53.14;99633.94;5095252;28;612;-67
2022/09/03 13:47:07;;;;;;;;;;;;;;;24.07;55.85;99638.44;5095118;28;687;-67
2022/09/03 13:55:49;;;;;;;;;;;;;;;23.82;56.50;99646.41;5095056;28;656;-68
2022/09/03 13:58:21;;;;;;;;;;;;;;;23.64;58.22;99632.59;5094675;28;1947;-70
2022/09/03 14:01:07;;;;;;;;;;;;;;;23.82;57.55;99652.03;5093516;28;1297;-67
2022/09/03 14:06:45;;;;;;;;;;;;;;;23.70;57.89;99660.88;5094779;28;620;-66
2022/09/03 14:09:23;;;;;;;;;;;;;;;23.92;57.63;99663.97;5094340;28;1228;-67
2022/09/03 14:12:08;;;;;;;;;;;;;;;24.12;56.91;99668.75;5094600;28;779;-67
2022/09/03 14:14:36;;;;;;;;;;;;;;;24.23;56.71;99651.13;5094956;28;837;-66
2022/09/03 14:17:23;;;;;;;;;;;;;;;23.89;56.84;99658.53;5094574;28;1914;-64
2022/09/03 14:19:59;;;;;;;;;;;;;;;23.63;57.41;99654.38;5094602;28;877;-67
2022/09/03 14:22:37;;;;;;;;;;;;;;;23.07;58.84;99662.19;5094381;28;786;-67
2022/09/03 14:28:14;;;;;;;;;;;;;;;22.66;61.12;99666.97;5094305;28;676;-67
2022/09/03 14:30:46;;;;;;;;;;;;;;;22.60;61.11;99659.22;5093858;28;873;-67
2022/09/03 14:33:13;;;;;;;;;;;;;;;22.54;61.15;99640.69;5094246;28;853;-69
2022/09/03 14:39:04;;;;;;;;;;;;;;;22.37;61.80;99666.53;5071528;28;1945;-67
2022/09/03 14:45:00;;;;;;;;;;;;;;;22.19;62.31;99659.06;5071668;28;621;-68
2022/09/03 14:47:57;;;;;;;;;;;;;;;22.12;62.42;99658.66;5039100;28;1247;-68
2022/09/03 14:50:45;;;;;;;;;;;;;;;22.17;62.47;99655.19;4991970;28;1196;-67
2022/09/03 14:53:20;;;;;;;;;;;;;;;22.35;62.55;99666.25;4992212;28;844;-66
2022/09/03 14:56:14;;;;;;;;;;;;;;;22.43;61.87;99661.78;4992000;28;1041;-68
2022/09/03 14:58:59;;;;;;;;;;;;;;;22.49;61.63;99664.69;4989917;28;1919;-66
2022/09/03 15:01:32;;;;;;;;;;;;;;;22.26;61.59;99668.41;4991752;28;1402;-66
2022/09/03 15:04:13;;;;;;;;;;;;;;;22.00;62.18;99668.97;4992339;28;808;-66
2022/09/03 15:06:47;;;;;;;;;;;;;;;21.76;63.25;99663.41;4991897;28;914;-67
2022/09/03 15:09:21;;;;;;;;;;;;;;;21.68;63.06;99663.03;4976824;28;1302;-67
2022/09/03 15:11:53;;;;;;;;;;;;;;;21.68;62.65;99656.59;4956230;28;1244;-66
2022/09/03 15:14:24;;;;;;;;;;;;;;;21.56;63.27;99666.88;4973916;28;1193;-67
2022/09/03 15:29:10;;;;;;;;;;;;;;;21.09;65.46;99682.50;5073148;28;624;-64
2022/09/03 15:32:04;;;;;;;;;;;;;;;21.03;65.39;99685.19;5073046;28;779;-64
2022/09/03 15:50:09;;;;;;;;;;;;;;;20.44;71.15;99718.50;5072779;28;664;-67
2022/09/03 15:52:54;;;;;;;;;;;;;;;20.26;71.78;99741.78;5072925;28;945;-65
2022/09/03 15:55:35;;;;;;;;;;;;;;;20.08;72.74;99732.16;5072240;28;799;-65
2022/09/03 15:58:08;;;;;;;;;;;;;;;20.02;73.04;99725.63;5072578;28;1897;-65
2022/09/03 16:00:40;;;;;;;;;;;;;;;19.90;73.70;99741.34;5072207;28;865;-64
2022/09/03 16:03:07;;;;;;;;;;;;;;;19.79;73.86;99741.81;5072369;28;924;-65
2022/09/03 16:05:54;;;;;;;;;;;;;;;19.71;74.33;99746.19;5054459;28;1274;-66
2022/09/03 16:08:20;;;;;;;;;;;;;;;19.61;74.74;99758.63;5080266;28;1426;-65
2022/09/03 16:14:05;;;;;;;;;;;;;;;19.33;75.90;99760.59;5092309;28;628;-65
2022/09/03 16:17:04;;;;;;;;;;;;;;;19.17;76.75;99759.63;5092255;28;882;-65
2022/09/03 16:23:04;;;;;;;;;;;;;;;18.85;78.03;99746.94;5092170;28;660;-66
2022/09/03 16:28:58;;;;;;;;;;;;;;;18.52;79.65;99761.38;5092194;28;660;-65
2022/09/03 16:31:35;;;;;;;;;;;;;;;18.45;79.84;99750.44;5107623;28;1340;-65
2022/09/03 16:34:21;;;;;;;;;;;;;;;18.34;80.55;99744.47;5073821;28;1313;-64
2022/09/03 16:37:01;;;;;;;;;;;;;;;18.27;81.06;99736.34;5091819;28;1967;-65
2022/09/03 16:51:39;;;;;;;;;;;;;;;17.87;82.60;99742.59;5091975;28;620;-66
2022/09/03 16:54:25;;;;;;;;;;;;;;;17.81;83.02;99753.53;5090134;28;1223;-65
2022/09/03 16:56:52;;;;;;;;;;;;;;;17.76;83.16;99763.28;5091682;28;1882;-66
2022/09/03 16:59:38;;;;;;;;;;;;;;;17.75;83.20;99752.56;5091830;28;820;-65
2022/09/03 17:02:23;;;;;;;;;;;;;;;17.65;83.65;99776.09;5091831;28;817;-65
2022/09/03 17:05:02;;;;;;;;;;;;;;;17.60;83.69;99774.63;5091626;28;842;-66
2022/09/03 17:17:34;;;;;;;;;;;;;;;17.35;85.17;99797.84;5086487;28;1890;-66
2022/09/03 17:20:12;;;;;;;;;;;;;;;17.29;85.17;99803.19;5071248;28;853;-67
2022/09/03 17:22:56;;;;;;;;;;;;;;;17.25;85.45;99822.09;5071291;28;806;-65
2022/09/03 17:28:43;;;;;;;;;;;;;;;17.13;86.16;99850.78;5071234;28;621;-63
2022/09/03 17:31:38;;;;;;;;;;;;;;;17.13;86.04;99837.63;5071073;28;806;-66
2022/09/03 17:34:18;;;;;;;;;;;;;;;17.09;86.14;99844.53;5071080;28;833;-64
2022/09/03 17:37:07;;;;;;;;;;;;;;;17.06;86.43;99857.38;5053076;28;1969;-63
2022/09/03 17:39:59;;;;;;;;;;;;;;;17.00;86.90;99866.75;5070996;28;787;-63
2022/09/03 17:42:48;;;;;;;;;;;;;;;16.93;87.05;99885.28;5062693;28;1151;-63
2022/09/03 17:45:32;;;;;;;;;;;;;;;16.85;87.78;99874.78;5071023;28;795;-63
2022/09/03 17:48:04;;;;;;;;;;;;;;;16.77;88.30;99884.56;5070904;28;888;-63
2022/09/03 17:50:33;;;;;;;;;;;;;;;16.74;88.39;99892.59;5070949;28;873;-64
2022/09/03 17:53:24;;;;;;;;;;;;;;;16.72;88.74;99886.66;5071641;28;783;-64
2022/09/03 17:55:56;;;;;;;;;;;;;;;16.67;88.72;99886.44;5064509;28;1013;-64
2022/09/03 17:58:42;;;;;;;;;;;;;;;16.65;88.79;99892.47;5070767;28;1886;-64
2022/09/03 18:01:24;;;;;;;;;;;;;;;16.61;88.97;99894.56;5070780;28;841;-63
2022/09/03 18:03:53;;;;;;;;;;;;;;;16.57;89.39;99898.69;5071149;28;853;-65
2022/09/03 18:09:46;;;;;;;;;;;;;;;16.53;89.50;99880.00;5074406;28;620;-64
2022/09/03 20:11:52;;;;;;;;;;;;;;;15.73;91.25;100032.25;5072303;28;661;-64
2022/09/03 20:14:20;;;;;;;;;;;;;;;15.73;91.14;100023.88;5071831;28;811;-63
2022/09/03 20:16:53;;;;;;;;;;;;;;;15.74;90.99;100031.78;5072200;28;838;-64
2022/09/03 20:19:20;;;;;;;;;;;;;;;15.65;91.37;100029.56;5071977;28;846;-64
2022/09/03 20:22:09;;;;;;;;;;;;;;;15.45;91.85;100009.34;5070687;28;847;-63
2022/09/03 20:24:39;;;;;;;;;;;;;;;15.60;92.01;100038.44;5071322;28;1300;-63
2022/09/03 20:27:06;;;;;;;;;;;;;;;15.65;92.05;100035.13;5091767;28;874;-63
2022/09/03 20:29:45;;;;;;;;;;;;;;;15.61;92.09;100050.38;5073815;28;1199;-63